Terminal Aerodrome Forecast
Issued by NWS Lake Charles, LA

Current Version | Previous Version | Text Only | Print | Product List | Glossary On
Versions: 1 2 3 4 5 6 7 8 9 10 11 12 13 14 15
000
FTUS44 KLCH 022320
TAFLCH
TAF
KLCH 022320Z 0300/0324 12010G18KT P6SM VCSH SCT035 BKN120
      TEMPO 0300/0301 4SM SHRA BKN025 OVC120
     FM030100 12004KT P6SM SCT040 BKN120
      TEMPO 0309/0313 5SM BR
     FM031400 15009KT P6SM VCTS SCT035CB PROB30 0318/0324 3SM TSRA
      OVC025CB=

USA.gov is the U.S. government's official web portal to all federal, state and local government web resources and services.